Tuesday, January 27, 2015, 11:51 AM EST
Back to Local

KCXY, Harrisburg Capital City

Location: New Cumberland, PA, United States Lat: 40.217
Local Time: 11:51 AM EST (16:51 GMT) Lon: -76.85
Time Zone: US/Eastern Elev: 347 ft

Show me the last for .
Show Decoded

2015-01-27 10:56 METAR KCXY 271556Z 33008G18KT 10SM FEW024 M02/M08 A2983 RMK AO2 SLP106 T10171083
                 =
2015-01-27 10:46 METAR KCXY 271546Z 33015G22KT 10SM SCT024 M02/M08 A2983 RMK AO2 T10221078 =
2015-01-27 10:03 METAR KCXY 271503Z 34007KT 10SM BKN022 M03/M08 A2982 RMK AO2 T10281078 =
2015-01-27 09:56 METAR KCXY 271456Z 30006KT 10SM SCT020 SCT025 M03/M07 A2982 RMK AO2 SLP103 60000
                 T10281072 53012 =
2015-01-27 09:25 METAR KCXY 271425Z 34008KT 10SM SCT021 M02/M07 A2981 RMK AO2 T10221072 =
2015-01-27 08:56 METAR KCXY 271356Z 33008G16KT 10SM OVC019 M03/M07 A2981 RMK AO2 SLP099 T10281072
                 =
2015-01-27 07:56 METAR KCXY 271256Z 31008KT 10SM OVC017 M03/M07 A2979 RMK AO2 SNE35 SLP093 P0000
                 T10281067 =
2015-01-27 07:43 METAR KCXY 271243Z 31007KT 10SM BKN019 BKN037 OVC100 M03/M06 A2979 RMK AO2 SNE35
                 P0000 T10281061 =
2015-01-27 06:56 METAR KCXY 271156Z 31006KT 5SM -SN OVC047 M03/M07 A2978 RMK AO2 SLP092 P0000
                 60000 T10331067 11028 21033 53009 =
2015-01-27 05:56 METAR KCXY 271056Z AUTO 32010KT 8SM -SN OVC036 M03/M07 A2978 RMK AO2 SLP091
                 P0000 T10281067 =
2015-01-27 04:56 METAR KCXY 270956Z AUTO 32007KT 8SM -SN SCT038 BKN048 OVC055 M03/M07 A2976 RMK
                 AO2 SLP083 P0000 T10281067 =
2015-01-27 03:56 METAR KCXY 270856Z AUTO 34005KT 7SM -SN OVC032 M03/M06 A2976 RMK AO2 SNB00
                 SLP083 P0000 60000 T10281061 58004 =
2015-01-27 03:15 METAR KCXY 270815Z AUTO 33009KT 7SM -SN OVC031 M03/M06 A2977 RMK AO2 SNB00 P0000
                 T10281061 =
2015-01-27 02:56 METAR KCXY 270756Z AUTO 33007KT 9SM FEW013 OVC028 M03/M06 A2977 RMK AO2
                 SNB0659E52 SLP087 P0000 T10281061 =
2015-01-27 01:56 METAR KCXY 270656Z AUTO 32008KT 10SM FEW013 OVC024 M03/M06 A2976 RMK AO2 SLP085
                 T10331061 =
2015-01-27 00:56 METAR KCXY 270556Z AUTO 32007KT 10SM OVC023 M03/M06 A2977 RMK AO2 SNB15E36
                 SLP087 P0000 60000 T10331061 11028 21039 56010 =
2015-01-26 23:56 METAR KCXY 270456Z AUTO 32009KT 10SM OVC023 M03/M06 A2977 RMK AO2 SNE15 SLP088
                 P0000 T10331061 400001044 =
2015-01-26 22:56 METAR KCXY 270356Z AUTO 34004KT 6SM -SN OVC022 M03/M06 A2979 RMK AO2 SNB0259
                 SLP093 P0000 T10331061 =
2015-01-26 21:56 METAR KCXY 270256Z AUTO 35004KT 5SM HZ OVC021 M03/M06 A2980 RMK AO2 SNE50 SLP097
                 P0000 60000 T10331061 53001 =
2015-01-26 21:29 METAR KCXY 270229Z AUTO 35004KT 3SM -SN BR BKN021 OVC027 M04/M06 A2980 RMK AO2
                 P0000 T10391061 =
2015-01-26 20:56 METAR KCXY 270156Z 33003KT 2 1/2SM -SN BR BKN019 OVC024 M04/M06 A2980 RMK AO2
                 SLP097 P0000 T10391061 =
2015-01-26 20:53 METAR KCXY 270153Z 34003KT 2 1/2SM -SN BR BKN019 OVC024 M04/M06 A2980 RMK AO2
                 P0000 =
2015-01-26 20:16 METAR KCXY 270116Z 35004KT 4SM -SN SCT015 OVC025 M03/M06 A2980 RMK AO2 P0000
                 T10331061 =
2015-01-26 20:04 METAR KCXY 270104Z 05004KT 2SM -SN SCT016 OVC025 M03/M06 A2980 RMK AO2 P0000
                 T10331061 =
2015-01-26 19:56 METAR KCXY 270056Z 06006KT 1 3/4SM -SN FEW016 OVC025 M03/M06 A2980 RMK AO2
                 SLP097 P0000 T10331061 =
2015-01-26 19:47 METAR KCXY 270047Z 07007KT 2SM -SN OVC025 M03/M07 A2980 RMK AO2 P0000 T10331067
                 =
2015-01-26 18:56 METAR KCXY 262356Z 06006KT 4SM -SN OVC025 M04/M07 A2980 RMK AO2 SLP099 P0000
                 60000 T10391072 11033 21044 51007 =
2015-01-26 17:56 METAR KCXY 262256Z 07008KT 7SM -SN OVC028 M04/M07 A2980 RMK AO2 SNB03 SLP098
                 P0000 T10391072 =
2015-01-26 16:56 METAR KCXY 262156Z 07011KT 9SM OVC024 M04/M08 A2979 RMK AO2 SNB22E50 SLP092
                 P0000 T10391078 =
2015-01-26 15:56 METAR KCXY 262056Z 06008KT 7SM OVC021 M04/M08 A2978 RMK AO2 SLP091 60000
                 T10391078 56012 =
2015-01-26 14:56 METAR KCXY 261956Z 06009KT 9SM OVC018 M04/M08 A2979 RMK AO2 SNB02E14 SLP094
                 P0000 T10441078 =
2015-01-26 13:56 METAR KCXY 261856Z 02007KT 10SM OVC019 M04/M08 A2980 RMK AO2 SLP095 T10441078 =
2015-01-26 12:56 METAR KCXY 261756Z 06008KT 6SM HZ OVC019 M04/M08 A2982 RMK AO2 SNB35E52 SLP102
                 P0000 60000 T10441078 11044 21044 58020 =
2015-01-26 11:56 METAR KCXY 261656Z 08008KT 10SM OVC018 M04/M08 A2985 RMK AO2 SLP112 T10441078 =

Support USWX by starting your Amazon purchase here.